Climatologie pour Saint-Brevin les Pins
Jour • Résumé pour juin 18, 2017 Système :  Métrique    Anglais   Mixte
« - 1 jour
+ 1 jour »
Jour Semaine Mois Année Personnalisé
  Maximum : Minimum : Moyenne :
Température sous abri : 33.1 °C 16.1 °C 25 °C
Point de rosée : 18.3 °C 14.8 °C 16.6 °C
Humidité : 93 % 37 % 63 %
Vitesse du vent : 22.5 km/h 0.0 km/h 7.4 km/h
Rafale : 35.4 km/h - -
Direction :- - ENE
Pression : 1022.6 hPa 1015.5 hPa -
Précipitations : 0.0 mm    
Historical Graphs
 
 
Tableau de données pour juin 18, 2017
Heure Tempé Pt rosée Pression Vent Vitesse Rafale Humidité Taux pluie (/hr) Soleil
00:00 21.9 °C 17.3 °C 1022.2 hPa Calm   16.1 km/h 75 % 0.0 mm 0 W/m2
00:10 21.6 °C 17.4 °C 1022.2 hPa NE 6.4 km/h 14.5 km/h 77 % 0.0 mm 0 W/m2
00:15 21.5 °C 17.3 °C 1022.2 hPa NE 6.4 km/h 12.9 km/h 77 % 0.0 mm 0 W/m2
00:25 21.1 °C 17.1 °C 1022.6 hPa NNE 3.2 km/h 12.9 km/h 78 % 0.0 mm 0 W/m2
00:30 20.9 °C 16.9 °C 1022.2 hPa ENE 1.6 km/h 12.9 km/h 78 % 0.0 mm 0 W/m2
00:35 20.8 °C 17.0 °C 1022.2 hPa NNE 8.0 km/h 16.1 km/h 79 % 0.0 mm 0 W/m2
00:40 20.7 °C 16.7 °C 1022.2 hPa NE 4.8 km/h 16.1 km/h 78 % 0.0 mm 0 W/m2
00:45 20.6 °C 16.6 °C 1022.2 hPa Calm   11.3 km/h 78 % 0.0 mm 0 W/m2
00:50 20.5 °C 16.7 °C 1022.2 hPa NE 4.8 km/h 11.3 km/h 79 % 0.0 mm 0 W/m2
00:55 20.4 °C 16.6 °C 1022.2 hPa Calm   11.3 km/h 79 % 0.0 mm 0 W/m2
01:00 20.2 °C 16.5 °C 1022.2 hPa NNE 3.2 km/h 11.3 km/h 79 % 0.0 mm 0 W/m2
01:05 20.1 °C 16.5 °C 1022.2 hPa Calm   11.3 km/h 80 % 0.0 mm 0 W/m2
01:10 20.0 °C 16.4 °C 1022.2 hPa ENE 4.8 km/h 9.7 km/h 80 % 0.0 mm 0 W/m2
01:15 19.9 °C 16.3 °C 1022.2 hPa NNE 3.2 km/h 9.7 km/h 80 % 0.0 mm 0 W/m2
01:20 19.8 °C 16.2 °C 1022.2 hPa NE 6.4 km/h 11.3 km/h 80 % 0.0 mm 0 W/m2
01:25 19.7 °C 16.2 °C 1022.2 hPa NE 8.0 km/h 11.3 km/h 80 % 0.0 mm 0 W/m2
01:30 19.7 °C 16.3 °C 1022.2 hPa ENE 1.6 km/h 9.7 km/h 81 % 0.0 mm 0 W/m2
01:35 19.5 °C 16.2 °C 1022.2 hPa ENE 4.8 km/h 9.7 km/h 81 % 0.0 mm 0 W/m2
01:40 19.3 °C 16.0 °C 1022.2 hPa NE 6.4 km/h 9.7 km/h 81 % 0.0 mm 0 W/m2
01:50 19.0 °C 16.0 °C 1021.9 hPa ENE 3.2 km/h 8.0 km/h 83 % 0.0 mm 0 W/m2
01:55 18.8 °C 16.1 °C 1021.9 hPa NE 1.6 km/h 8.0 km/h 84 % 0.0 mm 0 W/m2
02:00 18.8 °C 16.0 °C 1021.9 hPa Calm   8.0 km/h 84 % 0.0 mm 0 W/m2
02:05 18.6 °C 15.8 °C 1021.9 hPa Calm   6.4 km/h 84 % 0.0 mm 0 W/m2
02:15 18.3 °C 15.7 °C 1021.9 hPa NE 3.2 km/h 4.8 km/h 85 % 0.0 mm 0 W/m2
02:20 18.2 °C 15.8 °C 1021.9 hPa Calm   4.8 km/h 86 % 0.0 mm 0 W/m2
02:25 18.1 °C 15.7 °C 1021.9 hPa Calm   6.4 km/h 86 % 0.0 mm 0 W/m2
02:30 18.1 °C 15.7 °C 1021.9 hPa Calm   6.4 km/h 86 % 0.0 mm 0 W/m2
02:35 17.9 °C 15.7 °C 1021.6 hPa Calm   4.8 km/h 87 % 0.0 mm 0 W/m2
02:40 17.8 °C 15.6 °C 1021.6 hPa Calm   4.8 km/h 87 % 0.0 mm 0 W/m2
02:45 17.8 °C 15.8 °C 1021.6 hPa ENE 1.6 km/h 3.2 km/h 88 % 0.0 mm 0 W/m2
02:50 17.7 °C 15.7 °C 1021.6 hPa Calm   3.2 km/h 88 % 0.0 mm 0 W/m2
02:55 17.6 °C 15.5 °C 1021.6 hPa Calm   3.2 km/h 88 % 0.0 mm 0 W/m2
03:00 17.5 °C 15.5 °C 1021.6 hPa Calm   6.4 km/h 88 % 0.0 mm 0 W/m2
03:05 17.3 °C 15.5 °C 1021.6 hPa NE 1.6 km/h 6.4 km/h 89 % 0.0 mm 0 W/m2
03:10 17.3 °C 15.4 °C 1021.6 hPa Calm   4.8 km/h 89 % 0.0 mm 0 W/m2
03:15 17.2 °C 15.4 °C 1021.6 hPa Calm   4.8 km/h 89 % 0.0 mm 0 W/m2
03:20 17.1 °C 15.5 °C 1021.6 hPa Calm   4.8 km/h 90 % 0.0 mm 0 W/m2
03:25 17.1 °C 15.4 °C 1021.6 hPa ENE 1.6 km/h 3.2 km/h 90 % 0.0 mm 0 W/m2
03:30 17.0 °C 15.3 °C 1021.6 hPa ENE 3.2 km/h 8.0 km/h 90 % 0.0 mm 0 W/m2
03:35 17.2 °C 15.5 °C 1021.6 hPa ENE 1.6 km/h 11.3 km/h 90 % 0.0 mm 0 W/m2
03:40 17.2 °C 15.5 °C 1021.6 hPa East 3.2 km/h 11.3 km/h 90 % 0.0 mm 0 W/m2
03:45 17.3 °C 15.6 °C 1021.6 hPa ENE 6.4 km/h 11.3 km/h 90 % 0.0 mm 0 W/m2
03:50 17.3 °C 15.7 °C 1021.6 hPa East 12.9 km/h 12.9 km/h 90 % 0.0 mm 0 W/m2
03:55 17.4 °C 15.6 °C 1021.6 hPa NE 1.6 km/h 12.9 km/h 89 % 0.0 mm 0 W/m2
04:00 17.4 °C 15.6 °C 1021.2 hPa ENE 11.3 km/h 11.3 km/h 89 % 0.0 mm 0 W/m2
04:05 17.4 °C 15.6 °C 1021.2 hPa NE 1.6 km/h 11.3 km/h 89 % 0.0 mm 0 W/m2
04:10 17.4 °C 15.6 °C 1021.2 hPa NE 8.0 km/h 11.3 km/h 89 % 0.0 mm 0 W/m2
04:15 17.3 °C 15.4 °C 1021.2 hPa ENE 3.2 km/h 11.3 km/h 89 % 0.0 mm 0 W/m2
04:20 17.3 °C 15.4 °C 1021.2 hPa NE 3.2 km/h 11.3 km/h 89 % 0.0 mm 0 W/m2
04:25 17.2 °C 15.5 °C 1021.2 hPa East 1.6 km/h 8.0 km/h 90 % 0.0 mm 0 W/m2
04:30 17.3 °C 15.6 °C 1021.2 hPa East 3.2 km/h 9.7 km/h 90 % 0.0 mm 0 W/m2
04:35 17.4 °C 15.7 °C 1021.2 hPa ENE 4.8 km/h 11.3 km/h 90 % 0.0 mm 0 W/m2
04:40 17.4 °C 15.6 °C 1021.2 hPa NE 6.4 km/h 14.5 km/h 89 % 0.0 mm 0 W/m2
04:45 17.5 °C 15.7 °C 1021.2 hPa East 4.8 km/h 14.5 km/h 89 % 0.0 mm 0 W/m2
04:50 17.4 °C 15.6 °C 1021.2 hPa ENE 1.6 km/h 11.3 km/h 89 % 0.0 mm 0 W/m2
04:55 17.3 °C 15.4 °C 1021.2 hPa ENE 4.8 km/h 11.3 km/h 89 % 0.0 mm 0 W/m2
05:00 17.2 °C 15.3 °C 1021.2 hPa ENE 3.2 km/h 11.3 km/h 89 % 0.0 mm 0 W/m2
05:05 17.2 °C 15.5 °C 1021.2 hPa ENE 4.8 km/h 11.3 km/h 90 % 0.0 mm 0 W/m2
05:10 17.0 °C 15.3 °C 1020.9 hPa East 8.0 km/h 11.3 km/h 90 % 0.0 mm 0 W/m2
05:15 16.9 °C 15.3 °C 1020.9 hPa ENE 3.2 km/h 11.3 km/h 90 % 0.0 mm 0 W/m2
05:20 16.9 °C 15.2 °C 1021.2 hPa ENE 4.8 km/h 11.3 km/h 90 % 0.0 mm 0 W/m2
05:25 16.9 °C 15.3 °C 1020.9 hPa ENE 3.2 km/h 14.5 km/h 90 % 0.0 mm 0 W/m2
05:30 17.1 °C 15.4 °C 1020.9 hPa ENE 6.4 km/h 14.5 km/h 90 % 0.0 mm 0 W/m2
05:35 16.8 °C 15.2 °C 1020.9 hPa Calm   11.3 km/h 90 % 0.0 mm 0 W/m2
05:40 16.6 °C 15.0 °C 1020.9 hPa ENE 1.6 km/h 9.7 km/h 90 % 0.0 mm 0 W/m2
05:45 16.4 °C 14.9 °C 1020.9 hPa Calm   6.4 km/h 91 % 0.0 mm 0 W/m2
05:50 16.3 °C 14.8 °C 1020.9 hPa Calm   6.4 km/h 91 % 0.0 mm 0 W/m2
06:00 16.3 °C 15.0 °C 1020.9 hPa Calm   8.0 km/h 92 % 0.0 mm 0 W/m2
06:05 16.3 °C 15.0 °C 1020.9 hPa Calm   6.4 km/h 92 % 0.0 mm 0 W/m2
06:10 16.3 °C 15.0 °C 1020.9 hPa NE 3.2 km/h 8.0 km/h 92 % 0.0 mm 0 W/m2
06:15 16.3 °C 15.1 °C 1020.9 hPa NE 1.6 km/h 8.0 km/h 93 % 0.0 mm 0 W/m2
06:20 16.2 °C 15.0 °C 1020.9 hPa NE 4.8 km/h 4.8 km/h 93 % 0.0 mm 5 W/m2
06:25 16.2 °C 15.0 °C 1020.9 hPa Calm   8.0 km/h 93 % 0.0 mm 9 W/m2
06:30 16.1 °C 14.8 °C 1020.9 hPa ENE 4.8 km/h 8.0 km/h 92 % 0.0 mm 11 W/m2
06:35 16.1 °C 14.9 °C 1020.9 hPa ENE 1.6 km/h 6.4 km/h 93 % 0.0 mm 12 W/m2
06:40 16.2 °C 15.1 °C 1020.9 hPa ENE 3.2 km/h 8.0 km/h 93 % 0.0 mm 14 W/m2
06:45 16.3 °C 15.1 °C 1020.9 hPa NE 4.8 km/h 8.0 km/h 93 % 0.0 mm 16 W/m2
06:50 16.5 °C 15.4 °C 1020.9 hPa Calm   11.3 km/h 93 % 0.0 mm 18 W/m2
06:55 16.6 °C 15.5 °C 1020.9 hPa NNE 8.0 km/h 11.3 km/h 93 % 0.0 mm 19 W/m2
07:00 16.7 °C 15.4 °C 1020.9 hPa NNE 1.6 km/h 11.3 km/h 92 % 0.0 mm 23 W/m2
07:05 16.9 °C 15.6 °C 1020.9 hPa NNE 3.2 km/h 11.3 km/h 92 % 0.0 mm 25 W/m2
07:10 17.1 °C 15.6 °C 1020.9 hPa ENE 6.4 km/h 12.9 km/h 91 % 0.0 mm 26 W/m2
07:15 17.2 °C 15.7 °C 1020.9 hPa NE 6.4 km/h 12.9 km/h 91 % 0.0 mm 28 W/m2
07:20 17.4 °C 15.9 °C 1020.9 hPa NE 3.2 km/h 12.9 km/h 91 % 0.0 mm 30 W/m2
07:25 17.5 °C 15.8 °C 1020.9 hPa NNE 3.2 km/h 14.5 km/h 90 % 0.0 mm 32 W/m2
07:30 17.7 °C 16.0 °C 1020.9 hPa NE 3.2 km/h 14.5 km/h 90 % 0.0 mm 33 W/m2
07:35 17.7 °C 16.1 °C 1020.9 hPa NE 4.8 km/h 12.9 km/h 90 % 0.0 mm 33 W/m2
07:45 18.1 °C 16.2 °C 1020.9 hPa NE 1.6 km/h 16.1 km/h 89 % 0.0 mm 39 W/m2
07:50 18.2 °C 16.1 °C 1020.9 hPa ENE 1.6 km/h 16.1 km/h 88 % 0.0 mm 186 W/m2
07:55 18.4 °C 16.2 °C 1020.9 hPa ENE 8.0 km/h 14.5 km/h 87 % 0.0 mm 199 W/m2
08:00 18.6 °C 16.4 °C 1020.9 hPa NE 9.7 km/h 14.5 km/h 87 % 0.0 mm 214 W/m2
08:05 18.8 °C 16.4 °C 1020.9 hPa ENE 8.0 km/h 16.1 km/h 86 % 0.0 mm 229 W/m2
08:10 19.2 °C 16.6 °C 1020.9 hPa East 6.4 km/h 16.1 km/h 85 % 0.0 mm 244 W/m2
08:15 19.4 °C 16.7 °C 1020.9 hPa East 17.7 km/h 17.7 km/h 84 % 0.0 mm 258 W/m2
08:20 19.8 °C 16.6 °C 1020.9 hPa NE 4.8 km/h 17.7 km/h 82 % 0.0 mm 272 W/m2
08:25 20.1 °C 16.7 °C 1020.9 hPa East 11.3 km/h 17.7 km/h 81 % 0.0 mm 285 W/m2
08:30 20.3 °C 16.6 °C 1020.9 hPa ENE 11.3 km/h 17.7 km/h 79 % 0.0 mm 299 W/m2
08:35 20.5 °C 16.7 °C 1020.9 hPa ENE 11.3 km/h 17.7 km/h 79 % 0.0 mm 313 W/m2
08:40 20.7 °C 16.7 °C 1020.9 hPa East 8.0 km/h 17.7 km/h 78 % 0.0 mm 329 W/m2
08:45 20.9 °C 16.8 °C 1020.9 hPa ENE 3.2 km/h 17.7 km/h 77 % 0.0 mm 343 W/m2
08:50 21.1 °C 17.1 °C 1020.9 hPa East 9.7 km/h 17.7 km/h 78 % 0.0 mm 359 W/m2
08:55 21.3 °C 16.7 °C 1020.5 hPa East 3.2 km/h 17.7 km/h 75 % 0.0 mm 373 W/m2
09:00 21.7 °C 17.0 °C 1020.5 hPa ENE 6.4 km/h 17.7 km/h 75 % 0.0 mm 387 W/m2
09:05 21.9 °C 17.1 °C 1020.5 hPa East 4.8 km/h 17.7 km/h 74 % 0.0 mm 401 W/m2
09:10 22.2 °C 17.1 °C 1020.5 hPa ENE 3.2 km/h 17.7 km/h 73 % 0.0 mm 417 W/m2
09:15 22.4 °C 17.3 °C 1020.5 hPa ENE 16.1 km/h 25.7 km/h 73 % 0.0 mm 431 W/m2
09:20 22.6 °C 17.5 °C 1020.5 hPa East 16.1 km/h 25.7 km/h 73 % 0.0 mm 445 W/m2
09:25 22.9 °C 17.1 °C 1020.5 hPa East 8.0 km/h 25.7 km/h 70 % 0.0 mm 461 W/m2
09:30 23.2 °C 17.4 °C 1020.5 hPa ESE 4.8 km/h 25.7 km/h 70 % 0.0 mm 475 W/m2
09:35 23.4 °C 17.4 °C 1020.5 hPa East 8.0 km/h 22.5 km/h 69 % 0.0 mm 485 W/m2
09:40 23.7 °C 17.7 °C 1020.5 hPa ENE 6.4 km/h 25.7 km/h 69 % 0.0 mm 499 W/m2
09:45 23.9 °C 17.1 °C 1020.2 hPa ESE 4.8 km/h 25.7 km/h 66 % 0.0 mm 517 W/m2
09:50 24.1 °C 17.5 °C 1020.5 hPa ENE 22.5 km/h 24.1 km/h 67 % 0.0 mm 527 W/m2
09:55 24.1 °C 17.6 °C 1020.2 hPa East 14.5 km/h 24.1 km/h 67 % 0.0 mm 540 W/m2
10:00 24.2 °C 17.2 °C 1020.2 hPa East 9.7 km/h 25.7 km/h 65 % 0.0 mm 557 W/m2
10:05 24.3 °C 17.3 °C 1020.2 hPa East 6.4 km/h 25.7 km/h 65 % 0.0 mm 570 W/m2
10:10 24.7 °C 17.2 °C 1020.2 hPa ENE 17.7 km/h 27.4 km/h 63 % 0.0 mm 582 W/m2
10:15 24.7 °C 17.2 °C 1020.2 hPa East 16.1 km/h 27.4 km/h 63 % 0.0 mm 596 W/m2
10:20 24.7 °C 17.5 °C 1019.9 hPa SE 8.0 km/h 27.4 km/h 64 % 0.0 mm 606 W/m2
10:25 24.9 °C 17.7 °C 1019.9 hPa ESE 14.5 km/h 25.7 km/h 64 % 0.0 mm 621 W/m2
10:30 25.3 °C 17.7 °C 1019.9 hPa ENE 6.4 km/h 25.7 km/h 63 % 0.0 mm 633 W/m2
10:35 25.4 °C 17.3 °C 1019.9 hPa ENE 22.5 km/h 25.7 km/h 61 % 0.0 mm 647 W/m2
10:40 25.8 °C 17.4 °C 1019.9 hPa ENE 12.9 km/h 25.7 km/h 60 % 0.0 mm 659 W/m2
10:45 25.7 °C 17.1 °C 1019.9 hPa SE 16.1 km/h 29.0 km/h 59 % 0.0 mm 671 W/m2
10:50 25.6 °C 17.3 °C 1019.9 hPa SSE 9.7 km/h 29.0 km/h 60 % 0.0 mm 680 W/m2
10:55 25.8 °C 17.4 °C 1019.9 hPa NE 9.7 km/h 29.0 km/h 60 % 0.0 mm 693 W/m2
11:00 25.8 °C 16.9 °C 1019.5 hPa East 20.9 km/h 30.6 km/h 58 % 0.0 mm 701 W/m2
11:05 26.0 °C 17.6 °C 1019.5 hPa East 19.3 km/h 30.6 km/h 60 % 0.0 mm 715 W/m2
11:10 26.1 °C 17.1 °C 1019.5 hPa ESE 12.9 km/h 29.0 km/h 58 % 0.0 mm 726 W/m2
11:15 26.2 °C 17.3 °C 1019.5 hPa ENE 6.4 km/h 27.4 km/h 58 % 0.0 mm 735 W/m2
11:20 26.3 °C 17.4 °C 1019.5 hPa ENE 19.3 km/h 25.7 km/h 58 % 0.0 mm 744 W/m2
11:25 26.4 °C 17.7 °C 1019.5 hPa East 9.7 km/h 25.7 km/h 59 % 0.0 mm 751 W/m2
11:30 26.8 °C 17.8 °C 1019.5 hPa ENE 9.7 km/h 24.1 km/h 58 % 0.0 mm 763 W/m2
11:35 27.0 °C 17.5 °C 1019.5 hPa East 20.9 km/h 24.1 km/h 56 % 0.0 mm 773 W/m2
11:40 27.4 °C 17.9 °C 1019.5 hPa SE 6.4 km/h 22.5 km/h 56 % 0.0 mm 782 W/m2
11:45 27.2 °C 17.1 °C 1019.5 hPa East 11.3 km/h 24.1 km/h 54 % 0.0 mm 796 W/m2
11:50 27.4 °C 18.1 °C 1019.5 hPa ENE 14.5 km/h 24.1 km/h 57 % 0.0 mm 800 W/m2
11:55 27.4 °C 17.3 °C 1019.5 hPa ESE 17.7 km/h 27.4 km/h 54 % 0.0 mm 798 W/m2
12:00 27.4 °C 17.3 °C 1019.5 hPa NE 4.8 km/h 27.4 km/h 54 % 0.0 mm 817 W/m2
12:05 27.8 °C 17.3 °C 1019.5 hPa ENE 20.9 km/h 32.2 km/h 53 % 0.0 mm 824 W/m2
12:10 27.7 °C 17.2 °C 1019.2 hPa SSE 11.3 km/h 32.2 km/h 53 % 0.0 mm 830 W/m2
12:15 27.9 °C 17.5 °C 1019.2 hPa NE 3.2 km/h 27.4 km/h 53 % 0.0 mm 842 W/m2
12:20 28.2 °C 17.7 °C 1019.2 hPa ENE 1.6 km/h 25.7 km/h 53 % 0.0 mm 847 W/m2
12:25 28.4 °C 17.6 °C 1019.2 hPa East 16.1 km/h 25.7 km/h 52 % 0.0 mm 856 W/m2
12:30 28.3 °C 16.9 °C 1019.2 hPa ENE 17.7 km/h 25.7 km/h 50 % 0.0 mm 860 W/m2
12:35 28.3 °C 16.9 °C 1019.2 hPa NE 17.7 km/h 27.4 km/h 50 % 0.0 mm 863 W/m2
12:40 28.5 °C 17.1 °C 1019.2 hPa East 11.3 km/h 27.4 km/h 50 % 0.0 mm 868 W/m2
12:45 28.8 °C 18.3 °C 1018.8 hPa ENE 20.9 km/h 24.1 km/h 53 % 0.0 mm 872 W/m2
12:50 29.1 °C 17.6 °C 1018.8 hPa East 16.1 km/h 25.7 km/h 50 % 0.0 mm 879 W/m2
12:55 28.8 °C 17.1 °C 1018.8 hPa SSE 4.8 km/h 25.7 km/h 49 % 0.0 mm 884 W/m2
13:00 29.3 °C 16.8 °C 1018.8 hPa East 12.9 km/h 24.1 km/h 47 % 0.0 mm 889 W/m2
13:05 29.2 °C 17.4 °C 1018.8 hPa ENE 17.7 km/h 22.5 km/h 49 % 0.0 mm 891 W/m2
13:10 29.3 °C 17.5 °C 1018.5 hPa ENE 12.9 km/h 22.5 km/h 49 % 0.0 mm 896 W/m2
13:15 29.3 °C 17.1 °C 1018.5 hPa East 11.3 km/h 29.0 km/h 48 % 0.0 mm 900 W/m2
13:20 29.4 °C 17.3 °C 1018.5 hPa East 16.1 km/h 29.0 km/h 48 % 0.0 mm 900 W/m2
13:25 29.4 °C 18.2 °C 1018.5 hPa East 19.3 km/h 27.4 km/h 51 % 0.0 mm 904 W/m2
13:30 29.8 °C 18.0 °C 1018.5 hPa East 8.0 km/h 25.7 km/h 49 % 0.0 mm 904 W/m2
13:35 29.8 °C 17.6 °C 1018.5 hPa East 3.2 km/h 29.0 km/h 48 % 0.0 mm 904 W/m2
13:45 29.9 °C 17.1 °C 1018.2 hPa SE 16.1 km/h 29.0 km/h 46 % 0.0 mm 907 W/m2
13:50 30.2 °C 17.6 °C 1018.2 hPa NNE 3.2 km/h 29.0 km/h 47 % 0.0 mm 912 W/m2
13:55 30.5 °C 16.9 °C 1018.2 hPa East 14.5 km/h 25.7 km/h 44 % 0.0 mm 916 W/m2
14:00 30.7 °C 17.0 °C 1018.2 hPa ESE 16.1 km/h 24.1 km/h 44 % 0.0 mm 916 W/m2
14:05 30.8 °C 17.8 °C 1018.2 hPa East 22.5 km/h 22.5 km/h 46 % 0.0 mm 914 W/m2
14:10 30.4 °C 16.8 °C 1018.2 hPa East 12.9 km/h 29.0 km/h 44 % 0.0 mm 912 W/m2
14:15 30.4 °C 17.2 °C 1018.2 hPa ESE 4.8 km/h 30.6 km/h 45 % 0.0 mm 914 W/m2
14:20 30.6 °C 16.6 °C 1018.2 hPa East 11.3 km/h 30.6 km/h 43 % 0.0 mm 911 W/m2
14:25 30.5 °C 16.9 °C 1018.2 hPa ENE 11.3 km/h 33.8 km/h 44 % 0.0 mm 911 W/m2
14:30 30.7 °C 17.4 °C 1018.2 hPa ENE 8.0 km/h 33.8 km/h 45 % 0.0 mm 904 W/m2
14:35 31.1 °C 17.4 °C 1017.8 hPa NE 6.4 km/h 19.3 km/h 44 % 0.0 mm 911 W/m2
14:40 30.8 °C 16.8 °C 1017.8 hPa SE 8.0 km/h 27.4 km/h 43 % 0.0 mm 902 W/m2
14:45 30.8 °C 17.2 °C 1017.8 hPa ENE 11.3 km/h 27.4 km/h 44 % 0.0 mm 900 W/m2
14:50 30.7 °C 16.7 °C 1017.8 hPa East 12.9 km/h 27.4 km/h 43 % 0.0 mm 896 W/m2
14:55 30.7 °C 17.1 °C 1017.5 hPa NE 14.5 km/h 24.1 km/h 44 % 0.0 mm 889 W/m2
15:00 31.3 °C 17.2 °C 1017.5 hPa ENE 8.0 km/h 25.7 km/h 43 % 0.0 mm 889 W/m2
15:05 30.9 °C 16.9 °C 1017.5 hPa ENE 19.3 km/h 25.7 km/h 43 % 0.0 mm 881 W/m2
15:10 31.1 °C 17.4 °C 1017.5 hPa East 14.5 km/h 30.6 km/h 44 % 0.0 mm 879 W/m2
15:15 31.3 °C 17.3 °C 1017.5 hPa NE 12.9 km/h 30.6 km/h 43 % 0.0 mm 875 W/m2
15:20 31.2 °C 17.5 °C 1017.5 hPa ESE 11.3 km/h 35.4 km/h 44 % 0.0 mm 868 W/m2
15:25 31.7 °C 17.6 °C 1017.2 hPa East 9.7 km/h 35.4 km/h 43 % 0.0 mm 865 W/m2
15:30 31.7 °C 17.2 °C 1017.2 hPa ENE 8.0 km/h 27.4 km/h 42 % 0.0 mm 860 W/m2
15:35 31.9 °C 17.8 °C 1017.2 hPa ESE 14.5 km/h 27.4 km/h 43 % 0.0 mm 849 W/m2
15:40 31.8 °C 16.9 °C 1016.8 hPa ESE 8.0 km/h 24.1 km/h 41 % 0.0 mm 847 W/m2
15:45 31.9 °C 17.8 °C 1016.8 hPa NE 3.2 km/h 24.1 km/h 43 % 0.0 mm 842 W/m2
15:50 32.3 °C 18.1 °C 1016.8 hPa East 20.9 km/h 25.7 km/h 43 % 0.0 mm 837 W/m2
15:55 31.9 °C 17.1 °C 1016.8 hPa ENE 4.8 km/h 25.7 km/h 41 % 0.0 mm 830 W/m2
16:00 31.9 °C 17.1 °C 1016.8 hPa ESE 14.5 km/h 27.4 km/h 41 % 0.0 mm 819 W/m2
16:05 31.8 °C 16.6 °C 1016.8 hPa East 11.3 km/h 27.4 km/h 40 % 0.0 mm 812 W/m2
16:10 32.0 °C 16.7 °C 1016.8 hPa ENE 14.5 km/h 24.1 km/h 40 % 0.0 mm 805 W/m2
16:15 32.2 °C 16.9 °C 1016.5 hPa ENE 12.9 km/h 24.1 km/h 40 % 0.0 mm 793 W/m2
16:25 31.9 °C 16.6 °C 1016.8 hPa ENE 8.0 km/h 25.7 km/h 40 % 0.0 mm 780 W/m2
16:30 32.3 °C 16.6 °C 1016.8 hPa East 22.5 km/h 24.1 km/h 39 % 0.0 mm 768 W/m2
16:35 32.3 °C 16.6 °C 1016.8 hPa ENE 4.8 km/h 25.7 km/h 39 % 0.0 mm 758 W/m2
16:40 32.3 °C 17.0 °C 1016.5 hPa NE 12.9 km/h 25.7 km/h 40 % 0.0 mm 752 W/m2
16:45 32.1 °C 16.8 °C 1016.5 hPa ENE 11.3 km/h 25.7 km/h 40 % 0.0 mm 742 W/m2
16:50 32.4 °C 17.4 °C 1016.5 hPa East 14.5 km/h 27.4 km/h 41 % 0.0 mm 724 W/m2
16:55 32.3 °C 17.4 °C 1016.5 hPa East 6.4 km/h 27.4 km/h 41 % 0.0 mm 721 W/m2
17:00 32.4 °C 16.7 °C 1016.1 hPa ENE 20.9 km/h 24.1 km/h 39 % 0.0 mm 710 W/m2
17:05 32.3 °C 17.0 °C 1016.1 hPa ENE 19.3 km/h 24.1 km/h 40 % 0.0 mm 696 W/m2
17:10 32.3 °C 16.6 °C 1016.1 hPa ENE 17.7 km/h 29.0 km/h 39 % 0.0 mm 687 W/m2
17:15 32.7 °C 17.7 °C 1016.1 hPa ENE 11.3 km/h 29.0 km/h 41 % 0.0 mm 673 W/m2
17:20 32.7 °C 16.5 °C 1016.1 hPa ESE 4.8 km/h 22.5 km/h 38 % 0.0 mm 668 W/m2
17:25 32.8 °C 17.0 °C 1016.1 hPa NE 4.8 km/h 25.7 km/h 39 % 0.0 mm 649 W/m2
17:30 32.7 °C 16.9 °C 1016.1 hPa ESE 11.3 km/h 25.7 km/h 39 % 0.0 mm 640 W/m2
17:35 32.8 °C 16.6 °C 1016.1 hPa ENE 11.3 km/h 27.4 km/h 38 % 0.0 mm 631 W/m2
17:40 32.9 °C 17.1 °C 1016.1 hPa ENE 8.0 km/h 27.4 km/h 39 % 0.0 mm 617 W/m2
17:45 32.8 °C 17.5 °C 1016.1 hPa NNE 6.4 km/h 25.7 km/h 40 % 0.0 mm 605 W/m2
17:50 33.1 °C 17.7 °C 1016.1 hPa North 14.5 km/h 25.7 km/h 40 % 0.0 mm 589 W/m2
17:55 32.8 °C 16.6 °C 1016.1 hPa ESE 8.0 km/h 27.4 km/h 38 % 0.0 mm 578 W/m2
18:00 32.9 °C 16.7 °C 1016.1 hPa ESE 4.8 km/h 27.4 km/h 38 % 0.0 mm 564 W/m2
18:05 32.8 °C 16.6 °C 1016.1 hPa East 16.1 km/h 20.9 km/h 38 % 0.0 mm 552 W/m2
18:10 32.7 °C 16.5 °C 1016.1 hPa East 8.0 km/h 22.5 km/h 38 % 0.0 mm 541 W/m2
18:15 32.6 °C 16.4 °C 1016.1 hPa East 17.7 km/h 27.4 km/h 38 % 0.0 mm 527 W/m2
18:20 32.7 °C 16.1 °C 1016.1 hPa ENE 17.7 km/h 27.4 km/h 37 % 0.0 mm 513 W/m2
18:25 32.4 °C 15.9 °C 1015.8 hPa East 4.8 km/h 22.5 km/h 37 % 0.0 mm 501 W/m2
18:30 32.6 °C 17.2 °C 1015.8 hPa East 12.9 km/h 22.5 km/h 40 % 0.0 mm 487 W/m2
18:35 32.7 °C 16.5 °C 1015.8 hPa East 3.2 km/h 19.3 km/h 38 % 0.0 mm 471 W/m2
18:40 32.5 °C 16.3 °C 1015.8 hPa ESE 8.0 km/h 27.4 km/h 38 % 0.0 mm 462 W/m2
18:45 32.5 °C 16.3 °C 1015.8 hPa NE 12.9 km/h 27.4 km/h 38 % 0.0 mm 446 W/m2
18:50 32.4 °C 16.7 °C 1015.8 hPa NE 6.4 km/h 24.1 km/h 39 % 0.0 mm 431 W/m2
18:55 32.4 °C 16.7 °C 1015.8 hPa ENE 3.2 km/h 20.9 km/h 39 % 0.0 mm 417 W/m2
19:00 32.4 °C 17.1 °C 1015.8 hPa East 4.8 km/h 20.9 km/h 40 % 0.0 mm 404 W/m2
19:05 32.4 °C 16.7 °C 1015.8 hPa ESE 8.0 km/h 20.9 km/h 39 % 0.0 mm 388 W/m2
19:10 32.4 °C 16.7 °C 1015.8 hPa NE 14.5 km/h 20.9 km/h 39 % 0.0 mm 374 W/m2
19:15 32.2 °C 16.5 °C 1015.8 hPa ESE 11.3 km/h 20.9 km/h 39 % 0.0 mm 362 W/m2
19:20 32.3 °C 16.6 °C 1015.5 hPa ENE 14.5 km/h 24.1 km/h 39 % 0.0 mm 346 W/m2
19:25 32.2 °C 16.5 °C 1015.5 hPa East 3.2 km/h 24.1 km/h 39 % 0.0 mm 332 W/m2
19:30 32.1 °C 16.4 °C 1015.5 hPa ENE 3.2 km/h 20.9 km/h 39 % 0.0 mm 320 W/m2
19:35 31.9 °C 16.3 °C 1015.5 hPa East 11.3 km/h 22.5 km/h 39 % 0.0 mm 295 W/m2
19:40 31.8 °C 16.1 °C 1015.5 hPa ESE 3.2 km/h 22.5 km/h 39 % 0.0 mm 267 W/m2
19:45 31.7 °C 16.5 °C 1015.5 hPa ENE 16.1 km/h 25.7 km/h 40 % 0.0 mm 239 W/m2
19:50 31.7 °C 16.8 °C 1015.5 hPa ESE 16.1 km/h 25.7 km/h 41 % 0.0 mm 220 W/m2
19:55 31.5 °C 16.7 °C 1015.5 hPa ESE 12.9 km/h 22.5 km/h 41 % 0.0 mm 202 W/m2
20:00 31.5 °C 16.3 °C 1015.5 hPa East 8.0 km/h 22.5 km/h 40 % 0.0 mm 192 W/m2
20:05 31.4 °C 15.8 °C 1015.5 hPa East 11.3 km/h 22.5 km/h 39 % 0.0 mm 186 W/m2
20:10 31.3 °C 15.7 °C 1015.5 hPa ESE 8.0 km/h 20.9 km/h 39 % 0.0 mm 181 W/m2
20:15 31.3 °C 16.1 °C 1015.5 hPa ESE 3.2 km/h 20.9 km/h 40 % 0.0 mm 162 W/m2
20:20 31.2 °C 16.4 °C 1015.5 hPa SE 4.8 km/h 22.5 km/h 41 % 0.0 mm 137 W/m2
20:25 30.9 °C 15.7 °C 1015.5 hPa ESE 11.3 km/h 22.5 km/h 40 % 0.0 mm 125 W/m2
20:30 30.8 °C 16.0 °C 1015.5 hPa East 16.1 km/h 16.1 km/h 41 % 0.0 mm 114 W/m2
20:35 30.7 °C 16.3 °C 1015.5 hPa ENE 3.2 km/h 20.9 km/h 42 % 0.0 mm 98 W/m2
20:40 30.4 °C 16.0 °C 1015.5 hPa ESE 11.3 km/h 20.9 km/h 42 % 0.0 mm 58 W/m2
20:45 30.4 °C 16.4 °C 1015.5 hPa SE 6.4 km/h 17.7 km/h 43 % 0.0 mm 33 W/m2
20:55 30.0 °C 16.1 °C 1015.5 hPa ENE 6.4 km/h 17.7 km/h 43 % 0.0 mm 44 W/m2
21:00 29.8 °C 16.3 °C 1015.5 hPa East 8.0 km/h 17.7 km/h 44 % 0.0 mm 30 W/m2
21:05 29.7 °C 16.5 °C 1015.5 hPa ENE 6.4 km/h 12.9 km/h 45 % 0.0 mm 25 W/m2
21:10 29.4 °C 16.3 °C 1015.5 hPa ESE 3.2 km/h 11.3 km/h 45 % 0.0 mm 23 W/m2
21:15 29.2 °C 16.4 °C 1015.5 hPa East 4.8 km/h 11.3 km/h 46 % 0.0 mm 21 W/m2
21:20 28.8 °C 16.7 °C 1015.5 hPa East 4.8 km/h 11.3 km/h 48 % 0.0 mm 19 W/m2
21:25 28.8 °C 16.7 °C 1015.5 hPa East 1.6 km/h 11.3 km/h 48 % 0.0 mm 18 W/m2
21:30 28.6 °C 16.8 °C 1015.5 hPa ESE 3.2 km/h 11.3 km/h 49 % 0.0 mm 16 W/m2
21:35 28.3 °C 16.9 °C 1015.5 hPa ESE 3.2 km/h 8.0 km/h 50 % 0.0 mm 16 W/m2
21:40 28.1 °C 16.7 °C 1015.8 hPa ESE 4.8 km/h 4.8 km/h 50 % 0.0 mm 12 W/m2
21:45 27.9 °C 16.5 °C 1015.8 hPa Calm   8.0 km/h 50 % 0.0 mm 11 W/m2
21:50 27.7 °C 16.6 °C 1015.8 hPa Calm   8.0 km/h 51 % 0.0 mm 9 W/m2
21:55 27.3 °C 16.6 °C 1015.8 hPa Calm   8.0 km/h 52 % 0.0 mm 7 W/m2
22:00 27.2 °C 16.8 °C 1015.8 hPa Calm   8.0 km/h 53 % 0.0 mm 5 W/m2
22:05 27.1 °C 16.7 °C 1015.8 hPa East 1.6 km/h 8.0 km/h 53 % 0.0 mm 5 W/m2
22:10 26.7 °C 16.9 °C 1015.8 hPa East 3.2 km/h 8.0 km/h 55 % 0.0 mm 0 W/m2
22:15 26.5 °C 16.7 °C 1015.8 hPa East 4.8 km/h 8.0 km/h 55 % 0.0 mm 0 W/m2
22:20 26.3 °C 16.6 °C 1015.8 hPa East 4.8 km/h 6.4 km/h 55 % 0.0 mm 0 W/m2
22:25 26.2 °C 16.4 °C 1015.8 hPa East 1.6 km/h 8.0 km/h 55 % 0.0 mm 0 W/m2
22:30 25.8 °C 16.6 °C 1015.8 hPa East 1.6 km/h 8.0 km/h 57 % 0.0 mm 0 W/m2
22:35 25.2 °C 16.9 °C 1016.1 hPa Calm   6.4 km/h 60 % 0.0 mm 0 W/m2
22:40 24.6 °C 17.0 °C 1016.1 hPa Calm   6.4 km/h 63 % 0.0 mm 0 W/m2
22:45 24.2 °C 16.9 °C 1016.1 hPa East 3.2 km/h 4.8 km/h 64 % 0.0 mm 0 W/m2
22:50 24.3 °C 16.8 °C 1016.1 hPa Calm   8.0 km/h 63 % 0.0 mm 0 W/m2
22:55 24.2 °C 17.0 °C 1016.1 hPa East 1.6 km/h 8.0 km/h 64 % 0.0 mm 0 W/m2
23:00 23.9 °C 17.0 °C 1016.1 hPa East 1.6 km/h 8.0 km/h 65 % 0.0 mm 0 W/m2
23:05 23.6 °C 17.1 °C 1016.1 hPa Calm   4.8 km/h 67 % 0.0 mm 0 W/m2
23:10 23.4 °C 16.9 °C 1016.5 hPa Calm   4.8 km/h 67 % 0.0 mm 0 W/m2
23:15 23.4 °C 17.0 °C 1016.5 hPa Calm   4.8 km/h 67 % 0.0 mm 0 W/m2
23:20 23.6 °C 16.9 °C 1016.5 hPa ENE 3.2 km/h 4.8 km/h 66 % 0.0 mm 0 W/m2
23:25 23.7 °C 17.0 °C 1016.5 hPa East 1.6 km/h 8.0 km/h 66 % 0.0 mm 0 W/m2
23:30 23.9 °C 16.9 °C 1016.5 hPa East 8.0 km/h 9.7 km/h 65 % 0.0 mm 0 W/m2
23:35 24.1 °C 16.8 °C 1016.5 hPa East 8.0 km/h 9.7 km/h 64 % 0.0 mm 0 W/m2
23:40 24.1 °C 16.9 °C 1016.5 hPa ESE 6.4 km/h 9.7 km/h 64 % 0.0 mm 0 W/m2
23:45 24.1 °C 16.6 °C 1016.5 hPa ENE 4.8 km/h 9.7 km/h 63 % 0.0 mm 0 W/m2
23:50 23.9 °C 16.7 °C 1016.5 hPa East 1.6 km/h 11.3 km/h 64 % 0.0 mm 0 W/m2
23:55 23.9 °C 16.5 °C 1016.5 hPa ENE 1.6 km/h 11.3 km/h 63 % 0.0 mm 0 W/m2
Avec l'autorisation de Weather Underground - 1.75 mb